sensor_id;sensor_type;location;lat;lon;timestamp;temperature;humidity
69543;SHT31;56762;49.494;11.768;2024-02-26T00:01:39;1.37;84.84
69543;SHT31;56762;49.494;11.768;2024-02-26T00:04:08;1.33;84.39
69543;SHT31;56762;49.494;11.768;2024-02-26T00:06:35;1.32;84.02
69543;SHT31;56762;49.494;11.768;2024-02-26T00:09:04;1.25;83.84
69543;SHT31;56762;49.494;11.768;2024-02-26T00:11:32;1.22;83.94
69543;SHT31;56762;49.494;11.768;2024-02-26T00:14:05;1.28;84.80
69543;SHT31;56762;49.494;11.768;2024-02-26T00:16:33;1.26;85.34
69543;SHT31;56762;49.494;11.768;2024-02-26T00:19:01;1.29;85.27
69543;SHT31;56762;49.494;11.768;2024-02-26T00:21:28;1.28;85.63
69543;SHT31;56762;49.494;11.768;2024-02-26T00:23:56;1.28;85.53
69543;SHT31;56762;49.494;11.768;2024-02-26T00:26:24;1.30;85.26
69543;SHT31;56762;49.494;11.768;2024-02-26T00:28:52;1.35;84.97
69543;SHT31;56762;49.494;11.768;2024-02-26T00:31:21;1.30;84.07
69543;SHT31;56762;49.494;11.768;2024-02-26T00:33:48;1.28;84.08
69543;SHT31;56762;49.494;11.768;2024-02-26T00:36:17;1.22;84.26
69543;SHT31;56762;49.494;11.768;2024-02-26T00:38:45;1.26;84.22
69543;SHT31;56762;49.494;11.768;2024-02-26T00:41:17;1.25;85.34
69543;SHT31;56762;49.494;11.768;2024-02-26T00:43:45;1.28;85.25
69543;SHT31;56762;49.494;11.768;2024-02-26T00:46:13;1.28;85.28
69543;SHT31;56762;49.494;11.768;2024-02-26T00:48:42;1.29;85.46
69543;SHT31;56762;49.494;11.768;2024-02-26T00:51:10;1.26;85.81
69543;SHT31;56762;49.494;11.768;2024-02-26T00:53:38;1.25;85.34
69543;SHT31;56762;49.494;11.768;2024-02-26T00:56:05;1.19;85.65
69543;SHT31;56762;49.494;11.768;2024-02-26T00:58:33;1.19;85.53
69543;SHT31;56762;49.494;11.768;2024-02-26T01:01:01;1.18;85.54
69543;SHT31;56762;49.494;11.768;2024-02-26T01:03:29;1.16;85.47
69543;SHT31;56762;49.494;11.768;2024-02-26T01:05:59;1.18;85.76
69543;SHT31;56762;49.494;11.768;2024-02-26T01:08:27;1.10;85.19
69543;SHT31;56762;49.494;11.768;2024-02-26T01:10:55;1.09;84.81
69543;SHT31;56762;49.494;11.768;2024-02-26T01:13:22;1.06;85.25
69543;SHT31;56762;49.494;11.768;2024-02-26T01:15:50;1.03;84.98
69543;SHT31;56762;49.494;11.768;2024-02-26T01:18:18;0.99;84.78
69543;SHT31;56762;49.494;11.768;2024-02-26T01:20:46;1.00;85.62
69543;SHT31;56762;49.494;11.768;2024-02-26T01:23:15;1.00;85.75
69543;SHT31;56762;49.494;11.768;2024-02-26T01:25:43;0.95;84.58
69543;SHT31;56762;49.494;11.768;2024-02-26T01:28:11;0.92;85.17
69543;SHT31;56762;49.494;11.768;2024-02-26T01:30:39;0.91;85.62
69543;SHT31;56762;49.494;11.768;2024-02-26T01:33:07;0.92;85.80
69543;SHT31;56762;49.494;11.768;2024-02-26T01:35:35;0.84;85.13
69543;SHT31;56762;49.494;11.768;2024-02-26T01:38:03;0.87;85.64
69543;SHT31;56762;49.494;11.768;2024-02-26T01:40:33;0.88;85.45
69543;SHT31;56762;49.494;11.768;2024-02-26T01:43:03;0.84;85.39
69543;SHT31;56762;49.494;11.768;2024-02-26T01:45:30;0.85;85.58
69543;SHT31;56762;49.494;11.768;2024-02-26T01:47:58;0.88;85.82
69543;SHT31;56762;49.494;11.768;2024-02-26T01:50:26;0.85;86.08
69543;SHT31;56762;49.494;11.768;2024-02-26T01:52:55;0.84;86.15
69543;SHT31;56762;49.494;11.768;2024-02-26T01:55:25;0.85;86.43
69543;SHT31;56762;49.494;11.768;2024-02-26T01:57:55;0.82;86.27
69543;SHT31;56762;49.494;11.768;2024-02-26T02:00:23;0.85;86.10
69543;SHT31;56762;49.494;11.768;2024-02-26T02:02:51;0.82;85.89
69543;SHT31;56762;49.494;11.768;2024-02-26T02:05:21;0.82;86.05
69543;SHT31;56762;49.494;11.768;2024-02-26T02:07:50;0.81;86.15
69543;SHT31;56762;49.494;11.768;2024-02-26T02:10:19;0.81;85.99
69543;SHT31;56762;49.494;11.768;2024-02-26T02:12:49;0.81;86.15
69543;SHT31;56762;49.494;11.768;2024-02-26T02:15:19;0.82;86.34
69543;SHT31;56762;49.494;11.768;2024-02-26T02:17:47;0.78;85.51
69543;SHT31;56762;49.494;11.768;2024-02-26T02:20:16;0.75;84.93
69543;SHT31;56762;49.494;11.768;2024-02-26T02:22:47;0.72;84.75
69543;SHT31;56762;49.494;11.768;2024-02-26T02:25:14;0.69;84.78
69543;SHT31;56762;49.494;11.768;2024-02-26T02:27:43;0.74;85.21
69543;SHT31;56762;49.494;11.768;2024-02-26T02:30:11;0.71;84.82
69543;SHT31;56762;49.494;11.768;2024-02-26T02:32:40;0.67;84.93
69543;SHT31;56762;49.494;11.768;2024-02-26T02:35:08;0.64;84.80
69543;SHT31;56762;49.494;11.768;2024-02-26T02:37:36;0.61;84.51
69543;SHT31;56762;49.494;11.768;2024-02-26T02:40:07;0.60;84.49
69543;SHT31;56762;49.494;11.768;2024-02-26T02:42:35;0.54;84.67
69543;SHT31;56762;49.494;11.768;2024-02-26T02:45:03;0.54;85.01
69543;SHT31;56762;49.494;11.768;2024-02-26T02:47:31;0.50;84.79
69543;SHT31;56762;49.494;11.768;2024-02-26T02:49:58;0.58;85.67
69543;SHT31;56762;49.494;11.768;2024-02-26T02:52:26;0.51;85.43
69543;SHT31;56762;49.494;11.768;2024-02-26T02:54:54;0.51;85.15
69543;SHT31;56762;49.494;11.768;2024-02-26T02:57:23;0.53;85.86
69543;SHT31;56762;49.494;11.768;2024-02-26T02:59:51;0.51;85.42
69543;SHT31;56762;49.494;11.768;2024-02-26T03:02:19;0.54;85.87
69543;SHT31;56762;49.494;11.768;2024-02-26T03:04:46;0.53;85.48
69543;SHT31;56762;49.494;11.768;2024-02-26T03:07:14;0.57;86.25
69543;SHT31;56762;49.494;11.768;2024-02-26T03:09:42;0.60;86.50
69543;SHT31;56762;49.494;11.768;2024-02-26T03:12:10;0.62;86.14
69543;SHT31;56762;49.494;11.768;2024-02-26T03:14:39;0.64;85.49
69543;SHT31;56762;49.494;11.768;2024-02-26T03:17:07;0.65;85.24
69543;SHT31;56762;49.494;11.768;2024-02-26T03:19:35;0.65;85.15
69543;SHT31;56762;49.494;11.768;2024-02-26T03:22:03;0.65;84.78
69543;SHT31;56762;49.494;11.768;2024-02-26T03:24:31;0.72;85.24
69543;SHT31;56762;49.494;11.768;2024-02-26T03:26:59;0.81;85.44
69543;SHT31;56762;49.494;11.768;2024-02-26T03:29:26;0.87;85.01
69543;SHT31;56762;49.494;11.768;2024-02-26T03:31:56;0.89;84.82
69543;SHT31;56762;49.494;11.768;2024-02-26T03:34:23;0.93;84.97
69543;SHT31;56762;49.494;11.768;2024-02-26T03:36:52;0.92;84.31
69543;SHT31;56762;49.494;11.768;2024-02-26T03:39:20;0.93;84.33
69543;SHT31;56762;49.494;11.768;2024-02-26T03:41:49;0.98;84.95
69543;SHT31;56762;49.494;11.768;2024-02-26T03:44:17;0.99;84.86
69543;SHT31;56762;49.494;11.768;2024-02-26T03:46:44;0.99;84.42
69543;SHT31;56762;49.494;11.768;2024-02-26T03:49:14;1.03;85.04
69543;SHT31;56762;49.494;11.768;2024-02-26T03:51:42;0.98;83.70
69543;SHT31;56762;49.494;11.768;2024-02-26T03:54:10;0.98;84.32
69543;SHT31;56762;49.494;11.768;2024-02-26T03:56:37;0.89;84.10
69543;SHT31;56762;49.494;11.768;2024-02-26T03:59:05;0.88;85.04
69543;SHT31;56762;49.494;11.768;2024-02-26T04:01:33;0.88;84.79
69543;SHT31;56762;49.494;11.768;2024-02-26T04:04:01;0.85;85.17
69543;SHT31;56762;49.494;11.768;2024-02-26T04:06:30;0.81;84.90
69543;SHT31;56762;49.494;11.768;2024-02-26T04:08:58;0.82;85.55
69543;SHT31;56762;49.494;11.768;2024-02-26T04:11:27;0.84;85.62
69543;SHT31;56762;49.494;11.768;2024-02-26T04:13:55;0.84;86.16
69543;SHT31;56762;49.494;11.768;2024-02-26T04:16:23;0.91;86.14
69543;SHT31;56762;49.494;11.768;2024-02-26T04:18:51;0.93;86.21
69543;SHT31;56762;49.494;11.768;2024-02-26T04:21:20;0.98;85.96
69543;SHT31;56762;49.494;11.768;2024-02-26T04:23:49;0.98;85.89
69543;SHT31;56762;49.494;11.768;2024-02-26T04:26:17;1.02;85.86
69543;SHT31;56762;49.494;11.768;2024-02-26T04:28:45;1.00;84.84
69543;SHT31;56762;49.494;11.768;2024-02-26T04:31:12;0.99;84.88
69543;SHT31;56762;49.494;11.768;2024-02-26T04:33:40;0.92;84.19
69543;SHT31;56762;49.494;11.768;2024-02-26T04:36:13;0.96;84.90
69543;SHT31;56762;49.494;11.768;2024-02-26T04:38:41;0.95;84.31
69543;SHT31;56762;49.494;11.768;2024-02-26T04:41:10;0.93;84.21
69543;SHT31;56762;49.494;11.768;2024-02-26T04:43:38;0.89;83.88
69543;SHT31;56762;49.494;11.768;2024-02-26T04:46:08;0.88;84.59
69543;SHT31;56762;49.494;11.768;2024-02-26T04:48:36;0.89;84.88
69543;SHT31;56762;49.494;11.768;2024-02-26T04:51:05;0.85;85.26
69543;SHT31;56762;49.494;11.768;2024-02-26T04:53:33;0.85;85.37
69543;SHT31;56762;49.494;11.768;2024-02-26T04:56:00;0.85;85.75
69543;SHT31;56762;49.494;11.768;2024-02-26T04:58:30;0.87;85.76
69543;SHT31;56762;49.494;11.768;2024-02-26T05:00:58;0.91;85.79
69543;SHT31;56762;49.494;11.768;2024-02-26T05:03:26;0.95;85.89
69543;SHT31;56762;49.494;11.768;2024-02-26T05:05:53;0.98;85.50
69543;SHT31;56762;49.494;11.768;2024-02-26T05:08:21;1.02;86.05
69543;SHT31;56762;49.494;11.768;2024-02-26T05:10:49;1.05;86.16
69543;SHT31;56762;49.494;11.768;2024-02-26T05:13:17;1.12;86.03
69543;SHT31;56762;49.494;11.768;2024-02-26T05:15:46;1.16;85.76
69543;SHT31;56762;49.494;11.768;2024-02-26T05:18:15;1.18;85.57
69543;SHT31;56762;49.494;11.768;2024-02-26T05:20:43;1.23;85.87
69543;SHT31;56762;49.494;11.768;2024-02-26T05:23:11;1.30;85.97
69543;SHT31;56762;49.494;11.768;2024-02-26T05:25:39;1.29;84.26
69543;SHT31;56762;49.494;11.768;2024-02-26T05:28:07;1.26;84.68
69543;SHT31;56762;49.494;11.768;2024-02-26T05:30:36;1.30;85.16
69543;SHT31;56762;49.494;11.768;2024-02-26T05:33:07;1.36;85.23
69543;SHT31;56762;49.494;11.768;2024-02-26T05:35:35;1.29;84.04
69543;SHT31;56762;49.494;11.768;2024-02-26T05:38:03;1.32;84.60
69543;SHT31;56762;49.494;11.768;2024-02-26T05:40:31;1.37;84.97
69543;SHT31;56762;49.494;11.768;2024-02-26T05:42:59;1.36;84.26
69543;SHT31;56762;49.494;11.768;2024-02-26T05:45:27;1.35;84.63
69543;SHT31;56762;49.494;11.768;2024-02-26T05:47:55;1.36;84.38
69543;SHT31;56762;49.494;11.768;2024-02-26T05:50:24;1.36;84.75
69543;SHT31;56762;49.494;11.768;2024-02-26T05:52:52;1.36;84.58
69543;SHT31;56762;49.494;11.768;2024-02-26T05:55:20;1.37;85.00
69543;SHT31;56762;49.494;11.768;2024-02-26T05:57:47;1.39;85.04
69543;SHT31;56762;49.494;11.768;2024-02-26T06:00:16;1.40;84.46
69543;SHT31;56762;49.494;11.768;2024-02-26T06:02:44;1.40;84.73
69543;SHT31;56762;49.494;11.768;2024-02-26T06:05:12;1.35;83.97
69543;SHT31;56762;49.494;11.768;2024-02-26T06:07:41;1.32;84.14
69543;SHT31;56762;49.494;11.768;2024-02-26T06:10:10;1.35;85.00
69543;SHT31;56762;49.494;11.768;2024-02-26T06:12:40;1.30;84.87
69543;SHT31;56762;49.494;11.768;2024-02-26T06:15:08;1.30;84.80
69543;SHT31;56762;49.494;11.768;2024-02-26T06:17:36;1.33;85.06
69543;SHT31;56762;49.494;11.768;2024-02-26T06:20:05;1.33;84.72
69543;SHT31;56762;49.494;11.768;2024-02-26T06:22:39;1.36;84.91
69543;SHT31;56762;49.494;11.768;2024-02-26T06:25:08;1.29;84.94
69543;SHT31;56762;49.494;11.768;2024-02-26T06:27:36;1.26;84.89
69543;SHT31;56762;49.494;11.768;2024-02-26T06:30:05;1.28;85.42
69543;SHT31;56762;49.494;11.768;2024-02-26T06:32:33;1.26;85.57
69543;SHT31;56762;49.494;11.768;2024-02-26T06:35:01;1.20;85.93
69543;SHT31;56762;49.494;11.768;2024-02-26T06:37:34;1.20;85.62
69543;SHT31;56762;49.494;11.768;2024-02-26T06:40:02;1.19;85.85
69543;SHT31;56762;49.494;11.768;2024-02-26T06:42:34;1.19;86.22
69543;SHT31;56762;49.494;11.768;2024-02-26T06:45:02;1.19;86.08
69543;SHT31;56762;49.494;11.768;2024-02-26T06:47:32;1.20;85.91
69543;SHT31;56762;49.494;11.768;2024-02-26T06:50:00;1.23;86.18
69543;SHT31;56762;49.494;11.768;2024-02-26T06:52:28;1.26;86.57
69543;SHT31;56762;49.494;11.768;2024-02-26T06:54:56;1.33;86.89
69543;SHT31;56762;49.494;11.768;2024-02-26T06:57:24;1.37;86.89
69543;SHT31;56762;49.494;11.768;2024-02-26T06:59:53;1.40;86.62
69543;SHT31;56762;49.494;11.768;2024-02-26T07:02:21;1.46;86.95
69543;SHT31;56762;49.494;11.768;2024-02-26T07:04:49;1.50;86.89
69543;SHT31;56762;49.494;11.768;2024-02-26T07:07:17;1.59;86.69
69543;SHT31;56762;49.494;11.768;2024-02-26T07:09:45;1.64;86.84
69543;SHT31;56762;49.494;11.768;2024-02-26T07:12:13;1.75;87.10
69543;SHT31;56762;49.494;11.768;2024-02-26T07:14:42;1.90;87.05
69543;SHT31;56762;49.494;11.768;2024-02-26T07:17:12;1.97;86.85
69543;SHT31;56762;49.494;11.768;2024-02-26T07:19:39;2.08;86.93
69543;SHT31;56762;49.494;11.768;2024-02-26T07:22:08;2.24;86.88
69543;SHT31;56762;49.494;11.768;2024-02-26T07:24:35;2.30;86.01
69543;SHT31;56762;49.494;11.768;2024-02-26T07:27:03;2.38;85.90
69543;SHT31;56762;49.494;11.768;2024-02-26T07:29:32;2.46;85.37
69543;SHT31;56762;49.494;11.768;2024-02-26T07:31:59;2.52;85.94
69543;SHT31;56762;49.494;11.768;2024-02-26T07:34:28;2.59;85.28
69543;SHT31;56762;49.494;11.768;2024-02-26T07:36:57;2.66;85.88
69543;SHT31;56762;49.494;11.768;2024-02-26T07:39:24;2.76;85.62
69543;SHT31;56762;49.494;11.768;2024-02-26T07:41:53;2.80;85.39
69543;SHT31;56762;49.494;11.768;2024-02-26T07:44:20;2.96;85.32
69543;SHT31;56762;49.494;11.768;2024-02-26T07:46:48;3.07;85.15
69543;SHT31;56762;49.494;11.768;2024-02-26T07:49:16;3.20;85.15
69543;SHT31;56762;49.494;11.768;2024-02-26T07:51:45;3.39;85.25
69543;SHT31;56762;49.494;11.768;2024-02-26T07:54:13;3.59;84.14
69543;SHT31;56762;49.494;11.768;2024-02-26T07:56:43;3.75;83.66
69543;SHT31;56762;49.494;11.768;2024-02-26T07:59:11;3.89;83.55
69543;SHT31;56762;49.494;11.768;2024-02-26T08:01:38;3.99;82.88
69543;SHT31;56762;49.494;11.768;2024-02-26T08:04:08;4.16;82.80
69543;SHT31;56762;49.494;11.768;2024-02-26T08:06:36;4.21;82.84
69543;SHT31;56762;49.494;11.768;2024-02-26T08:09:06;4.33;82.56
69543;SHT31;56762;49.494;11.768;2024-02-26T08:11:33;4.31;81.84
69543;SHT31;56762;49.494;11.768;2024-02-26T08:14:02;4.38;82.83
69543;SHT31;56762;49.494;11.768;2024-02-26T08:16:29;4.47;81.90
69543;SHT31;56762;49.494;11.768;2024-02-26T08:19:00;4.51;81.36
69543;SHT31;56762;49.494;11.768;2024-02-26T08:21:28;4.50;81.17
69543;SHT31;56762;49.494;11.768;2024-02-26T08:23:56;4.52;81.40
69543;SHT31;56762;49.494;11.768;2024-02-26T08:26:25;4.52;80.92
69543;SHT31;56762;49.494;11.768;2024-02-26T08:28:54;4.50;80.85
69543;SHT31;56762;49.494;11.768;2024-02-26T08:31:22;4.50;81.46
69543;SHT31;56762;49.494;11.768;2024-02-26T08:33:50;4.47;80.74
69543;SHT31;56762;49.494;11.768;2024-02-26T08:36:19;4.51;80.91
69543;SHT31;56762;49.494;11.768;2024-02-26T08:38:47;4.55;81.16
69543;SHT31;56762;49.494;11.768;2024-02-26T08:41:14;4.57;81.20
69543;SHT31;56762;49.494;11.768;2024-02-26T08:43:44;4.71;81.30
69543;SHT31;56762;49.494;11.768;2024-02-26T08:46:12;4.86;80.61
69543;SHT31;56762;49.494;11.768;2024-02-26T08:48:40;4.95;80.42
69543;SHT31;56762;49.494;11.768;2024-02-26T08:51:09;5.02;79.56
69543;SHT31;56762;49.494;11.768;2024-02-26T08:53:37;5.09;79.39
69543;SHT31;56762;49.494;11.768;2024-02-26T08:56:09;5.19;79.16
69543;SHT31;56762;49.494;11.768;2024-02-26T08:58:38;5.32;78.85
69543;SHT31;56762;49.494;11.768;2024-02-26T09:01:07;5.40;79.15
69543;SHT31;56762;49.494;11.768;2024-02-26T09:03:35;5.43;77.27
69543;SHT31;56762;49.494;11.768;2024-02-26T09:06:04;5.51;78.98
69543;SHT31;56762;49.494;11.768;2024-02-26T09:08:33;5.65;78.12
69543;SHT31;56762;49.494;11.768;2024-02-26T09:11:02;5.70;77.34
69543;SHT31;56762;49.494;11.768;2024-02-26T09:13:31;5.82;77.78
69543;SHT31;56762;49.494;11.768;2024-02-26T09:15:59;5.90;76.87
69543;SHT31;56762;49.494;11.768;2024-02-26T09:18:28;5.98;77.76
69543;SHT31;56762;49.494;11.768;2024-02-26T09:20:56;6.09;76.45
69543;SHT31;56762;49.494;11.768;2024-02-26T09:23:24;6.12;76.76
69543;SHT31;56762;49.494;11.768;2024-02-26T09:25:52;6.22;76.87
69543;SHT31;56762;49.494;11.768;2024-02-26T09:28:20;6.30;75.82
69543;SHT31;56762;49.494;11.768;2024-02-26T09:30:48;6.39;75.74
69543;SHT31;56762;49.494;11.768;2024-02-26T09:33:17;6.52;76.45
69543;SHT31;56762;49.494;11.768;2024-02-26T09:35:47;6.58;76.00
69543;SHT31;56762;49.494;11.768;2024-02-26T09:38:14;6.67;76.71
69543;SHT31;56762;49.494;11.768;2024-02-26T09:40:42;6.70;75.45
69543;SHT31;56762;49.494;11.768;2024-02-26T09:43:14;6.79;75.87
69543;SHT31;56762;49.494;11.768;2024-02-26T09:45:42;6.85;75.78
69543;SHT31;56762;49.494;11.768;2024-02-26T09:48:12;6.87;74.35
69543;SHT31;56762;49.494;11.768;2024-02-26T09:50:41;6.87;74.98
69543;SHT31;56762;49.494;11.768;2024-02-26T09:53:12;6.91;74.38
69543;SHT31;56762;49.494;11.768;2024-02-26T09:55:41;6.94;74.70
69543;SHT31;56762;49.494;11.768;2024-02-26T09:58:10;7.03;75.03
69543;SHT31;56762;49.494;11.768;2024-02-26T10:00:47;7.05;75.37
69543;SHT31;56762;49.494;11.768;2024-02-26T10:03:21;7.08;74.15
69543;SHT31;56762;49.494;11.768;2024-02-26T10:05:50;7.09;74.06
69543;SHT31;56762;49.494;11.768;2024-02-26T10:08:23;7.19;73.20
69543;SHT31;56762;49.494;11.768;2024-02-26T10:10:51;7.16;73.40
69543;SHT31;56762;49.494;11.768;2024-02-26T10:13:19;7.22;73.80
69543;SHT31;56762;49.494;11.768;2024-02-26T10:15:47;7.28;73.46
69543;SHT31;56762;49.494;11.768;2024-02-26T10:18:15;7.32;73.11
69543;SHT31;56762;49.494;11.768;2024-02-26T10:20:58;7.39;73.71
69543;SHT31;56762;49.494;11.768;2024-02-26T10:23:28;7.42;73.43
69543;SHT31;56762;49.494;11.768;2024-02-26T10:25:56;7.42;72.67
69543;SHT31;56762;49.494;11.768;2024-02-26T10:28:23;7.39;71.23
69543;SHT31;56762;49.494;11.768;2024-02-26T10:30:52;7.39;72.50
69543;SHT31;56762;49.494;11.768;2024-02-26T10:33:20;7.32;72.30
69543;SHT31;56762;49.494;11.768;2024-02-26T10:35:48;7.34;73.74
69543;SHT31;56762;49.494;11.768;2024-02-26T10:38:16;7.28;73.20
69543;SHT31;56762;49.494;11.768;2024-02-26T10:40:48;7.25;74.03
69543;SHT31;56762;49.494;11.768;2024-02-26T10:43:16;7.19;73.22
69543;SHT31;56762;49.494;11.768;2024-02-26T10:45:45;7.21;73.84
69543;SHT31;56762;49.494;11.768;2024-02-26T10:48:14;7.24;73.47
69543;SHT31;56762;49.494;11.768;2024-02-26T10:50:44;7.31;74.21
69543;SHT31;56762;49.494;11.768;2024-02-26T10:53:15;7.39;73.66
69543;SHT31;56762;49.494;11.768;2024-02-26T10:55:52;7.44;73.67
69543;SHT31;56762;49.494;11.768;2024-02-26T10:58:20;7.46;72.94
69543;SHT31;56762;49.494;11.768;2024-02-26T11:00:50;7.55;72.81
69543;SHT31;56762;49.494;11.768;2024-02-26T11:03:19;7.65;73.94
69543;SHT31;56762;49.494;11.768;2024-02-26T11:05:48;7.73;73.53
69543;SHT31;56762;49.494;11.768;2024-02-26T11:08:18;7.79;73.23
69543;SHT31;56762;49.494;11.768;2024-02-26T11:10:47;7.75;72.83
69543;SHT31;56762;49.494;11.768;2024-02-26T11:13:18;7.77;72.65
69543;SHT31;56762;49.494;11.768;2024-02-26T11:15:46;7.83;73.70
69543;SHT31;56762;49.494;11.768;2024-02-26T11:18:15;7.87;72.81
69543;SHT31;56762;49.494;11.768;2024-02-26T11:20:44;7.94;73.29
69543;SHT31;56762;49.494;11.768;2024-02-26T11:23:13;7.96;72.90
69543;SHT31;56762;49.494;11.768;2024-02-26T11:25:42;8.03;73.38
69543;SHT31;56762;49.494;11.768;2024-02-26T11:28:14;8.06;73.59
69543;SHT31;56762;49.494;11.768;2024-02-26T11:30:47;8.08;72.67
69543;SHT31;56762;49.494;11.768;2024-02-26T11:33:15;8.16;73.43
69543;SHT31;56762;49.494;11.768;2024-02-26T11:35:45;8.25;72.41
69543;SHT31;56762;49.494;11.768;2024-02-26T11:38:17;8.34;72.68
69543;SHT31;56762;49.494;11.768;2024-02-26T11:40:47;8.41;72.20
69543;SHT31;56762;49.494;11.768;2024-02-26T11:43:15;8.51;72.13
69543;SHT31;56762;49.494;11.768;2024-02-26T11:45:50;8.54;71.53
69543;SHT31;56762;49.494;11.768;2024-02-26T11:48:21;8.65;72.52
69543;SHT31;56762;49.494;11.768;2024-02-26T11:50:51;8.73;71.50
69543;SHT31;56762;49.494;11.768;2024-02-26T11:53:20;8.73;71.18
69543;SHT31;56762;49.494;11.768;2024-02-26T11:55:48;8.80;71.17
69543;SHT31;56762;49.494;11.768;2024-02-26T11:58:39;8.87;71.08
69543;SHT31;56762;49.494;11.768;2024-02-26T12:01:42;8.93;70.98
69543;SHT31;56762;49.494;11.768;2024-02-26T12:04:17;9.00;71.13
69543;SHT31;56762;49.494;11.768;2024-02-26T12:06:51;9.09;70.67
69543;SHT31;56762;49.494;11.768;2024-02-26T12:09:36;9.06;69.01
69543;SHT31;56762;49.494;11.768;2024-02-26T12:12:05;9.09;69.39
69543;SHT31;56762;49.494;11.768;2024-02-26T12:14:38;9.09;69.37
69543;SHT31;56762;49.494;11.768;2024-02-26T12:17:07;9.10;70.11
69543;SHT31;56762;49.494;11.768;2024-02-26T12:19:46;9.19;69.99
69543;SHT31;56762;49.494;11.768;2024-02-26T12:22:14;9.22;68.70
69543;SHT31;56762;49.494;11.768;2024-02-26T12:24:42;9.23;68.80
69543;SHT31;56762;49.494;11.768;2024-02-26T12:27:11;9.27;68.70
69543;SHT31;56762;49.494;11.768;2024-02-26T12:29:39;9.33;69.17
69543;SHT31;56762;49.494;11.768;2024-02-26T12:32:08;9.40;68.91
69543;SHT31;56762;49.494;11.768;2024-02-26T12:34:38;9.48;68.69
69543;SHT31;56762;49.494;11.768;2024-02-26T12:37:06;9.57;68.96
69543;SHT31;56762;49.494;11.768;2024-02-26T12:39:37;9.58;67.81
69543;SHT31;56762;49.494;11.768;2024-02-26T12:42:04;9.73;68.62
69543;SHT31;56762;49.494;11.768;2024-02-26T12:44:32;9.78;68.58
69543;SHT31;56762;49.494;11.768;2024-02-26T12:47:01;9.78;67.06
69543;SHT31;56762;49.494;11.768;2024-02-26T12:49:31;9.82;67.57
69543;SHT31;56762;49.494;11.768;2024-02-26T12:51:59;9.77;66.81
69543;SHT31;56762;49.494;11.768;2024-02-26T12:54:29;9.71;66.40
69543;SHT31;56762;49.494;11.768;2024-02-26T12:56:59;9.64;66.54
69543;SHT31;56762;49.494;11.768;2024-02-26T12:59:28;9.54;66.70
69543;SHT31;56762;49.494;11.768;2024-02-26T13:01:57;9.57;68.33
69543;SHT31;56762;49.494;11.768;2024-02-26T13:04:26;9.55;68.43
69543;SHT31;56762;49.494;11.768;2024-02-26T13:06:56;9.48;67.59
69543;SHT31;56762;49.494;11.768;2024-02-26T13:09:27;9.44;69.02
69543;SHT31;56762;49.494;11.768;2024-02-26T13:11:55;9.33;68.06
69543;SHT31;56762;49.494;11.768;2024-02-26T13:14:23;9.31;67.82
69543;SHT31;56762;49.494;11.768;2024-02-26T13:16:55;9.31;68.67
69543;SHT31;56762;49.494;11.768;2024-02-26T13:19:23;9.33;68.01
69543;SHT31;56762;49.494;11.768;2024-02-26T13:21:51;9.31;68.16
69543;SHT31;56762;49.494;11.768;2024-02-26T13:24:20;9.23;67.75
69543;SHT31;56762;49.494;11.768;2024-02-26T13:26:54;9.17;68.56
69543;SHT31;56762;49.494;11.768;2024-02-26T13:29:22;9.17;68.58
69543;SHT31;56762;49.494;11.768;2024-02-26T13:31:55;9.19;69.20
69543;SHT31;56762;49.494;11.768;2024-02-26T13:34:25;9.10;69.07
69543;SHT31;56762;49.494;11.768;2024-02-26T13:36:54;9.10;69.38
69543;SHT31;56762;49.494;11.768;2024-02-26T13:39:24;9.10;69.00
69543;SHT31;56762;49.494;11.768;2024-02-26T13:41:52;9.07;68.77
69543;SHT31;56762;49.494;11.768;2024-02-26T13:44:21;9.07;69.30
69543;SHT31;56762;49.494;11.768;2024-02-26T13:46:49;9.10;69.40
69543;SHT31;56762;49.494;11.768;2024-02-26T13:49:17;9.09;69.28
69543;SHT31;56762;49.494;11.768;2024-02-26T13:51:45;9.12;69.46
69543;SHT31;56762;49.494;11.768;2024-02-26T13:54:13;9.13;68.85
69543;SHT31;56762;49.494;11.768;2024-02-26T13:56:42;9.13;68.34
69543;SHT31;56762;49.494;11.768;2024-02-26T13:59:14;9.16;68.84
69543;SHT31;56762;49.494;11.768;2024-02-26T14:01:42;9.16;69.86
69543;SHT31;56762;49.494;11.768;2024-02-26T14:04:09;9.09;70.13
69543;SHT31;56762;49.494;11.768;2024-02-26T14:06:38;9.03;69.41
69543;SHT31;56762;49.494;11.768;2024-02-26T14:09:07;8.95;69.48
69543;SHT31;56762;49.494;11.768;2024-02-26T14:11:35;8.96;70.16
69543;SHT31;56762;49.494;11.768;2024-02-26T14:14:04;8.99;70.20
69543;SHT31;56762;49.494;11.768;2024-02-26T14:16:32;8.96;69.89
69543;SHT31;56762;49.494;11.768;2024-02-26T14:18:59;8.92;70.59
69543;SHT31;56762;49.494;11.768;2024-02-26T14:21:28;8.92;70.57
69543;SHT31;56762;49.494;11.768;2024-02-26T14:23:56;8.95;70.47
69543;SHT31;56762;49.494;11.768;2024-02-26T14:26:23;8.95;70.07
69543;SHT31;56762;49.494;11.768;2024-02-26T14:28:52;8.92;69.78
69543;SHT31;56762;49.494;11.768;2024-02-26T14:31:21;8.95;70.29
69543;SHT31;56762;49.494;11.768;2024-02-26T14:33:48;8.93;69.91
69543;SHT31;56762;49.494;11.768;2024-02-26T14:36:20;8.85;69.55
69543;SHT31;56762;49.494;11.768;2024-02-26T14:38:48;8.82;68.81
69543;SHT31;56762;49.494;11.768;2024-02-26T14:41:16;8.87;68.92
69543;SHT31;56762;49.494;11.768;2024-02-26T14:43:44;8.80;69.61
69543;SHT31;56762;49.494;11.768;2024-02-26T14:46:13;8.76;69.68
69543;SHT31;56762;49.494;11.768;2024-02-26T14:48:42;8.65;70.38
69543;SHT31;56762;49.494;11.768;2024-02-26T14:51:10;8.56;70.55
69543;SHT31;56762;49.494;11.768;2024-02-26T14:53:38;8.55;71.47
69543;SHT31;56762;49.494;11.768;2024-02-26T14:56:06;8.49;71.35
69543;SHT31;56762;49.494;11.768;2024-02-26T14:58:36;8.47;71.89
69543;SHT31;56762;49.494;11.768;2024-02-26T15:01:05;8.40;71.73
69543;SHT31;56762;49.494;11.768;2024-02-26T15:03:33;8.37;71.35
69543;SHT31;56762;49.494;11.768;2024-02-26T15:06:03;8.30;72.31
69543;SHT31;56762;49.494;11.768;2024-02-26T15:08:33;8.25;72.49
69543;SHT31;56762;49.494;11.768;2024-02-26T15:11:01;8.18;72.52
69543;SHT31;56762;49.494;11.768;2024-02-26T15:13:30;8.16;72.73
69543;SHT31;56762;49.494;11.768;2024-02-26T15:15:57;8.11;72.29
69543;SHT31;56762;49.494;11.768;2024-02-26T15:18:26;8.08;72.43
69543;SHT31;56762;49.494;11.768;2024-02-26T15:20:54;7.98;71.95
69543;SHT31;56762;49.494;11.768;2024-02-26T15:23:23;7.96;72.49
69543;SHT31;56762;49.494;11.768;2024-02-26T15:25:51;7.86;72.43
69543;SHT31;56762;49.494;11.768;2024-02-26T15:28:19;7.82;73.03
69543;SHT31;56762;49.494;11.768;2024-02-26T15:30:46;7.83;73.37
69543;SHT31;56762;49.494;11.768;2024-02-26T15:33:15;7.85;73.37
69543;SHT31;56762;49.494;11.768;2024-02-26T15:35:44;7.86;73.77
69543;SHT31;56762;49.494;11.768;2024-02-26T15:38:11;7.86;73.69
69543;SHT31;56762;49.494;11.768;2024-02-26T15:40:41;7.80;73.62